Time;durP1;ratioP1;P1;durP2;ratioP2;P2;SDS_P1;SDS_P2;PMS_P1;PMS_P2;Temp;Humidity;BMP_temperature;BMP_pressure;BME280_temperature;BME280_humidity;BME280_pressure;Samples;Min_cycle;Max_cycle;Signal;HPM_P1;HPM_P2
2021/09/30 00:01:28;;;;;;;24.57;16.27;;;;;;;12.28;79.53;99447.94;2059605;86;20973;-83
2021/09/30 00:04:28;;;;;;;24.60;16.10;;;;;;;12.30;79.96;99443.18;2059129;86;21016;-83
2021/09/30 00:07:29;;;;;;;29.87;17.70;;;;;;;12.27;79.92;99448.80;2058727;86;21036;-83
2021/09/30 00:10:29;;;;;;;23.92;17.27;;;;;;;12.25;79.97;99447.90;2058477;86;20957;-84
2021/09/30 00:32:58;;;;;;;28.80;18.25;;;;;;;12.21;81.23;99444.78;2073295;86;21044;-83
2021/09/30 00:45:25;;;;;;;26.48;17.23;;;;;;;12.11;81.81;99443.73;2071982;86;20956;-82
2021/09/30 00:48:49;;;;;;;32.75;18.20;;;;;;;12.08;82.46;99460.27;2050947;86;20965;-84
2021/09/30 00:52:03;;;;;;;117.85;95.70;;;;;;;12.08;82.50;99460.27;2072973;84;21035;-83
2021/09/30 01:18:33;;;;;;;22.65;17.55;;;;;;;12.05;83.02;99473.30;2062335;86;20977;-82
2021/09/30 02:20:28;;;;;;;21.97;16.52;;;;;;;12.21;84.17;99500.63;2105106;84;20952;-83
2021/09/30 02:26:42;;;;;;;21.25;16.97;;;;;;;12.19;84.16;99501.03;2088489;85;20980;-82
2021/09/30 02:29:55;;;;;;;20.85;16.02;;;;;;;12.19;84.36;99502.34;2103297;84;20955;-82
2021/09/30 02:39:51;;;;;;;23.42;16.95;;;;;;;12.19;84.43;99504.95;2104647;85;20952;-83
2021/09/30 02:58:49;;;;;;;28.35;20.35;;;;;;;12.35;85.45;99510.00;2099645;84;20936;-83
2021/09/30 03:01:49;;;;;;;36.60;25.60;;;;;;;12.33;85.23;99503.86;2100171;85;20933;-83
2021/09/30 03:04:50;;;;;;;34.55;26.20;;;;;;;12.31;85.56;99500.34;2099889;84;21348;-83
2021/09/30 03:07:50;;;;;;;42.23;28.83;;;;;;;12.33;86.22;99504.74;2099588;84;20980;-82
2021/09/30 03:10:53;;;;;;;41.13;28.47;;;;;;;12.39;86.12;99514.42;2099335;84;20940;-84
2021/09/30 03:13:53;;;;;;;46.60;32.42;;;;;;;12.40;86.08;99519.69;2099667;85;20989;-84
2021/09/30 03:17:01;;;;;;;59.00;37.73;;;;;;;12.44;86.42;99520.19;2100484;84;21299;-82
2021/09/30 03:20:05;;;;;;;56.45;39.67;;;;;;;12.49;86.40;99521.98;2099396;84;21284;-81
2021/09/30 03:23:02;;;;;;;58.35;41.40;;;;;;;12.52;86.39;99522.92;2099421;84;20937;-83
2021/09/30 03:26:02;;;;;;;33.98;23.55;;;;;;;12.52;86.54;99528.58;2100256;85;20941;-81
2021/09/30 03:29:03;;;;;;;45.03;31.25;;;;;;;12.52;86.28;99525.97;2100053;84;21012;-82
2021/09/30 03:32:03;;;;;;;32.53;23.00;;;;;;;12.52;86.20;99525.97;2099953;84;20945;-83
2021/09/30 03:35:05;;;;;;;40.70;26.70;;;;;;;12.51;86.00;99528.13;2099949;85;21028;-81
2021/09/30 03:38:05;;;;;;;41.98;27.35;;;;;;;12.47;85.88;99528.52;2099363;84;20946;-83
2021/09/30 03:41:06;;;;;;;38.53;28.98;;;;;;;12.47;86.07;99535.06;2099457;85;20973;-83
2021/09/30 03:44:06;;;;;;;46.75;33.25;;;;;;;12.46;86.16;99534.61;2099106;85;20985;-82
2021/09/30 03:47:07;;;;;;;54.27;36.33;;;;;;;12.48;86.33;99540.75;2099262;84;20981;-82
2021/09/30 03:50:14;;;;;;;39.50;27.98;;;;;;;12.48;86.45;99544.67;2100018;84;21635;-81
2021/09/30 03:53:19;;;;;;;56.25;39.20;;;;;;;12.51;86.47;99542.53;2088593;84;21977;-81
2021/09/30 03:59:19;;;;;;;59.10;40.38;;;;;;;12.54;86.73;99551.31;2091874;84;20956;-81
2021/09/30 04:02:20;;;;;;;61.20;40.35;;;;;;;12.55;86.90;99562.24;2111616;84;20952;-83
2021/09/30 04:05:20;;;;;;;64.87;47.10;;;;;;;12.53;86.87;99557.41;2111068;84;20996;-81
2021/09/30 04:08:21;;;;;;;77.85;56.75;;;;;;;12.51;87.01;99574.84;2111281;84;21007;-82
2021/09/30 04:11:21;;;;;;;77.00;56.37;;;;;;;12.50;87.25;99577.00;2109817;84;20983;-82
2021/09/30 04:14:22;;;;;;;77.50;52.40;;;;;;;12.48;87.36;99576.52;2110511;84;20953;-82
2021/09/30 04:17:22;;;;;;;70.35;49.77;;;;;;;12.48;87.61;99573.91;2110452;84;21336;-81
2021/09/30 04:20:23;;;;;;;63.55;45.85;;;;;;;12.47;87.79;99580.88;2110004;84;20972;-82
2021/09/30 04:23:24;;;;;;;63.98;45.73;;;;;;;12.44;87.86;99582.14;2109052;84;20937;-82
2021/09/30 04:26:24;;;;;;;70.90;46.55;;;;;;;12.44;88.07;99584.77;2109428;84;20943;-82
2021/09/30 04:29:25;;;;;;;77.22;52.40;;;;;;;12.43;87.90;99585.62;2109775;84;21015;-83
2021/09/30 04:32:25;;;;;;;79.55;55.38;;;;;;;12.45;87.84;99585.21;2109740;84;20945;-82
2021/09/30 04:35:26;;;;;;;75.55;53.68;;;;;;;12.45;87.75;99587.83;2110104;84;21047;-81
2021/09/30 04:41:29;;;;;;;64.50;44.25;;;;;;;12.50;87.74;99594.45;2089520;84;20988;-82
2021/09/30 04:44:29;;;;;;;63.50;42.65;;;;;;;12.51;87.62;99602.77;2110175;84;20952;-83
2021/09/30 04:47:30;;;;;;;62.00;42.48;;;;;;;12.53;87.73;99593.19;2110050;84;20980;-84
2021/09/30 04:50:30;;;;;;;54.95;40.40;;;;;;;12.57;87.63;99609.41;2111341;84;21004;-83
2021/09/30 04:53:31;;;;;;;58.60;41.60;;;;;;;12.55;87.42;99608.50;2105242;84;21000;-83
2021/09/30 04:56:31;;;;;;;61.58;40.35;;;;;;;12.58;87.40;99619.91;2098340;85;20968;-83
2021/09/30 04:59:32;;;;;;;57.15;40.80;;;;;;;12.55;87.38;99619.86;2099119;85;20953;-83
2021/09/30 05:02:35;;;;;;;53.13;37.93;;;;;;;12.56;87.24;99622.05;2089637;85;20945;-83
2021/09/30 05:05:35;;;;;;;54.93;38.58;;;;;;;12.57;87.20;99629.92;2099188;85;21015;-83
2021/09/30 05:08:36;;;;;;;53.55;38.92;;;;;;;12.57;87.19;99631.66;2098625;85;21019;-85
2021/09/30 05:11:46;;;;;;;50.60;39.13;;;;;;;12.58;87.09;99643.48;2099902;85;20960;-84
2021/09/30 05:14:39;;;;;;;53.38;37.13;;;;;;;12.56;87.01;99643.00;2098480;84;20960;-84
2021/09/30 05:17:40;;;;;;;51.68;36.10;;;;;;;12.56;87.09;99650.42;2099393;85;20968;-84
2021/09/30 05:20:40;;;;;;;53.33;37.90;;;;;;;12.59;87.11;99659.64;2099316;85;20953;-82
2021/09/30 05:23:41;;;;;;;51.73;37.33;;;;;;;12.63;87.12;99656.65;2099568;85;20988;-83
2021/09/30 05:26:41;;;;;;;52.60;38.45;;;;;;;12.65;87.09;99661.48;2098558;85;21004;-83
2021/09/30 05:29:42;;;;;;;58.13;38.63;;;;;;;12.66;87.02;99661.94;2098976;85;20961;-83
2021/09/30 05:32:43;;;;;;;62.62;40.30;;;;;;;12.64;87.20;99664.53;2099322;85;21273;-82
2021/09/30 05:35:43;;;;;;;60.75;41.95;;;;;;;12.65;87.39;99668.91;2099019;85;21047;-83
2021/09/30 05:38:44;;;;;;;58.20;39.63;;;;;;;12.64;87.41;99665.84;2098591;85;20976;-81
2021/09/30 05:41:48;;;;;;;56.42;38.45;;;;;;;12.66;87.48;99669.37;2098802;85;21041;-83
2021/09/30 05:44:47;;;;;;;63.10;43.55;;;;;;;12.81;87.76;99663.49;2098754;84;20949;-83
2021/09/30 05:47:47;;;;;;;69.58;44.48;;;;;;;12.82;87.29;99664.38;2099259;85;20969;-81
2021/09/30 05:50:48;;;;;;;68.05;46.58;;;;;;;12.83;87.24;99663.52;2100103;85;20956;-81
2021/09/30 05:53:48;;;;;;;72.22;46.05;;;;;;;12.79;87.29;99659.97;2103872;84;21003;-80
2021/09/30 05:56:49;;;;;;;66.28;45.12;;;;;;;12.78;87.84;99661.25;2111002;84;20968;-82
2021/09/30 05:59:50;;;;;;;61.77;41.33;;;;;;;12.79;87.69;99665.20;2110672;84;21312;-79
2021/09/30 06:12:26;;;;;;;68.15;45.55;;;;;;;12.59;88.93;99684.53;2091167;84;20956;-79
2021/09/30 06:15:28;;;;;;;75.52;46.92;;;;;;;12.54;89.11;99704.52;2110335;84;21028;-82
2021/09/30 06:18:26;;;;;;;73.07;48.98;;;;;;;12.48;89.81;99707.03;2109998;84;21403;-82
2021/09/30 06:21:27;;;;;;;77.40;50.63;;;;;;;12.42;90.46;99719.58;2110709;84;20952;-82
2021/09/30 06:24:27;;;;;;;76.65;50.58;;;;;;;12.39;90.02;99726.50;2110650;84;21328;-82
2021/09/30 06:27:28;;;;;;;75.95;49.20;;;;;;;12.33;90.32;99740.36;2111014;84;20984;-82
2021/09/30 06:30:31;;;;;;;67.90;45.10;;;;;;;12.27;89.54;99745.48;2110065;84;21031;-81
2021/09/30 06:33:31;;;;;;;64.87;44.75;;;;;;;12.24;89.33;99755.00;2109648;84;20964;-82
2021/09/30 06:36:31;;;;;;;60.63;41.18;;;;;;;12.21;89.10;99757.56;2110451;84;20952;-82
2021/09/30 06:39:32;;;;;;;47.95;35.63;;;;;;;12.19;88.89;99764.50;2110209;84;20944;-80
2021/09/30 06:42:32;;;;;;;53.20;35.78;;;;;;;12.14;88.89;99767.03;2110628;84;20941;-82
2021/09/30 06:45:33;;;;;;;44.75;31.57;;;;;;;12.10;88.20;99773.02;2110477;84;20960;-82
2021/09/30 06:48:33;;;;;;;36.95;27.98;;;;;;;12.09;87.66;99774.75;2090393;84;21019;-81
2021/09/30 06:51:35;;;;;;;35.00;25.75;;;;;;;12.08;87.00;99778.22;2111098;84;21303;-81
2021/09/30 06:54:36;;;;;;;36.17;24.97;;;;;;;12.08;86.43;99778.22;2099068;84;21052;-82
2021/09/30 07:00:39;;;;;;;28.90;21.90;;;;;;;12.16;85.33;99808.51;2050946;87;21129;-80
2021/09/30 07:03:39;;;;;;;28.32;21.52;;;;;;;12.32;84.99;99818.87;2090725;85;20945;-81
2021/09/30 07:06:40;;;;;;;32.25;25.27;;;;;;;12.42;84.50;99824.74;2058917;86;21412;-82
2021/09/30 07:09:40;;;;;;;30.88;23.12;;;;;;;12.48;84.55;99823.98;2091482;85;20949;-82
2021/09/30 07:12:41;;;;;;;35.73;24.52;;;;;;;12.60;84.31;99831.65;2091039;85;20929;-80
2021/09/30 07:15:42;;;;;;;40.35;27.65;;;;;;;12.70;83.89;99824.84;2090294;85;21356;-80
2021/09/30 07:18:42;;;;;;;34.70;25.75;;;;;;;12.71;84.16;99826.19;2090494;85;21340;-80
2021/09/30 07:21:43;;;;;;;38.20;27.22;;;;;;;12.71;83.08;99832.73;2058496;86;20937;-79
2021/09/30 07:24:44;;;;;;;36.13;25.30;;;;;;;12.73;82.73;99828.41;2057599;86;20979;-80
2021/09/30 07:27:44;;;;;;;39.10;25.97;;;;;;;12.83;81.87;99824.66;2089926;85;21383;-80
2021/09/30 07:30:45;;;;;;;38.05;25.92;;;;;;;13.03;81.46;99836.41;2090466;85;20972;-79
2021/09/30 07:33:45;;;;;;;36.88;25.92;;;;;;;13.15;81.21;99848.42;2089897;85;21315;-81
2021/09/30 07:36:46;;;;;;;34.10;25.65;;;;;;;13.09;80.76;99843.06;2090072;85;21345;-81
2021/09/30 07:39:46;;;;;;;30.88;24.35;;;;;;;13.00;81.14;99853.35;2090644;85;21069;-80
2021/09/30 07:42:47;;;;;;;29.23;21.93;;;;;;;13.03;81.37;99846.89;2090815;85;20965;-78
2021/09/30 07:45:48;;;;;;;26.23;20.10;;;;;;;13.14;79.14;99855.83;2058412;86;20968;-79
2021/09/30 07:48:48;;;;;;;26.15;19.98;;;;;;;13.11;78.94;99847.03;2058666;86;20981;-79
2021/09/30 07:51:49;;;;;;;23.95;18.07;;;;;;;13.08;78.16;99855.29;2091203;85;20940;-80
2021/09/30 07:54:49;;;;;;;23.20;18.02;;;;;;;13.09;77.51;99861.41;2059944;84;21408;-80
2021/09/30 07:57:50;;;;;;;22.35;18.35;;;;;;;13.19;78.62;99854.63;2060180;85;21329;-80
2021/09/30 08:00:50;;;;;;;24.20;17.02;;;;;;;13.32;78.24;99859.23;2060374;86;20965;-78
2021/09/30 08:03:51;;;;;;;23.50;16.37;;;;;;;13.45;77.56;99860.31;2059259;86;20962;-80
2021/09/30 08:06:52;;;;;;;21.87;16.07;;;;;;;13.53;77.07;99870.50;2060247;86;20992;-79
2021/09/30 08:09:52;;;;;;;21.48;16.50;;;;;;;13.45;77.17;99869.48;2059925;86;21065;-80
2021/09/30 08:12:53;;;;;;;22.17;15.50;;;;;;;13.45;77.51;99870.38;2059930;86;20937;-79
2021/09/30 08:15:53;;;;;;;17.42;15.10;;;;;;;13.51;77.62;99870.47;2059830;85;20957;-79
2021/09/30 08:18:55;;;;;;;14.90;13.30;;;;;;;13.54;77.22;99874.89;2058920;85;20956;-79
2021/09/30 08:21:56;;;;;;;15.05;12.23;;;;;;;13.61;76.78;99868.88;2060747;86;20981;-80
2021/09/30 08:24:58;;;;;;;14.75;11.12;;;;;;;13.63;75.47;99868.05;2052904;86;20969;-80
2021/09/30 08:27:59;;;;;;;13.25;11.30;;;;;;;13.69;74.56;99869.88;2060289;86;20985;-79
2021/09/30 08:30:59;;;;;;;11.97;10.78;;;;;;;13.70;75.02;99872.53;2060195;85;20960;-80
2021/09/30 08:34:00;;;;;;;15.55;10.15;;;;;;;13.74;74.74;99869.52;2060733;86;21356;-80
2021/09/30 08:37:01;;;;;;;16.30;11.08;;;;;;;13.75;73.90;99870.41;2061169;86;20950;-80
2021/09/30 08:40:02;;;;;;;15.98;10.80;;;;;;;13.84;74.00;99866.18;2060302;86;20961;-79
2021/09/30 08:43:03;;;;;;;15.28;9.83;;;;;;;14.13;74.15;99871.00;2059853;85;20930;-79
2021/09/30 08:46:05;;;;;;;14.63;10.30;;;;;;;14.61;73.58;99871.66;2060167;86;20953;-78
2021/09/30 08:49:06;;;;;;;12.88;10.28;;;;;;;14.74;70.20;99883.62;2059747;85;20972;-79
2021/09/30 08:52:06;;;;;;;14.15;9.43;;;;;;;14.68;69.95;99879.61;2059607;86;20976;-79
2021/09/30 08:55:07;;;;;;;12.07;7.95;;;;;;;14.61;70.74;99884.80;2087537;84;21370;-77
2021/09/30 08:58:08;;;;;;;15.40;8.33;;;;;;;14.60;70.48;99879.09;2061236;86;21392;-78
2021/09/30 09:01:09;;;;;;;11.45;8.50;;;;;;;14.60;69.60;99885.66;2061061;86;20944;-80
2021/09/30 09:04:09;;;;;;;7.75;6.78;;;;;;;14.46;70.06;99888.55;2061151;86;21052;-79
2021/09/30 09:07:10;;;;;;;12.33;7.70;;;;;;;14.38;69.49;99884.91;2060659;85;21363;-79
2021/09/30 09:10:10;;;;;;;10.95;7.40;;;;;;;14.35;69.14;99892.75;2060809;86;20989;-80
2021/09/30 09:13:14;;;;;;;10.88;6.58;;;;;;;14.26;66.95;99896.56;2062163;86;21005;-80
2021/09/30 09:16:14;;;;;;;11.12;7.17;;;;;;;14.11;67.76;99902.91;2109085;84;20936;-80
2021/09/30 09:19:15;;;;;;;11.60;6.62;;;;;;;14.06;67.97;99898.02;2109103;84;20936;-81
2021/09/30 09:22:15;;;;;;;10.23;6.30;;;;;;;14.07;68.12;99897.17;2109581;84;20953;-80
2021/09/30 09:25:16;;;;;;;11.25;6.67;;;;;;;14.06;67.94;99906.78;2108761;84;21316;-77
2021/09/30 09:28:19;;;;;;;11.55;7.22;;;;;;;13.96;67.46;99897.01;2061086;85;21383;-80
2021/09/30 09:31:19;;;;;;;10.78;6.72;;;;;;;13.91;68.26;99890.38;2061399;85;21334;-79
2021/09/30 09:34:20;;;;;;;8.40;6.53;;;;;;;13.81;67.32;99890.18;2061281;85;20961;-79
2021/09/30 09:37:22;;;;;;;9.70;6.75;;;;;;;13.74;68.39;99894.87;2108920;84;20972;-79
2021/09/30 09:40:22;;;;;;;9.25;6.35;;;;;;;13.80;68.83;99897.60;2061933;85;20996;-79
2021/09/30 09:43:23;;;;;;;8.48;6.47;;;;;;;13.88;69.00;99903.88;2062605;86;20989;-79
2021/09/30 09:46:23;;;;;;;11.45;6.70;;;;;;;13.96;69.19;99907.08;2062944;85;20993;-79
2021/09/30 09:49:24;;;;;;;13.72;6.33;;;;;;;14.00;68.32;99908.89;2108066;84;21051;-79
2021/09/30 09:52:25;;;;;;;197.82;18.12;;;;;;;14.06;67.95;99913.78;2109967;84;20960;-80
2021/09/30 09:55:25;;;;;;;7.03;5.80;;;;;;;14.17;68.76;99906.51;2104012;84;20996;-80
2021/09/30 09:58:26;;;;;;;8.75;6.22;;;;;;;14.14;67.01;99915.66;2098503;85;20929;-79
2021/09/30 10:01:27;;;;;;;9.08;5.87;;;;;;;14.11;67.77;99914.30;2098583;84;20929;-80
2021/09/30 10:04:27;;;;;;;11.22;8.55;;;;;;;14.11;67.21;99918.67;2098266;85;20929;-80
2021/09/30 10:07:28;;;;;;;12.47;6.53;;;;;;;14.12;67.24;99917.37;2098084;85;21008;-82
2021/09/30 10:10:28;;;;;;;7.70;5.90;;;;;;;14.26;65.76;99917.57;2097372;85;21375;-80
2021/09/30 10:13:32;;;;;;;10.85;7.17;;;;;;;14.39;65.58;99915.99;2097637;84;21331;-81
2021/09/30 10:16:31;;;;;;;7.83;6.58;;;;;;;14.55;65.52;99928.50;2059023;86;21316;-83
2021/09/30 10:19:31;;;;;;;7.95;5.80;;;;;;;14.77;65.22;99921.80;2058924;86;21127;-83
2021/09/30 10:22:32;;;;;;;10.80;6.42;;;;;;;14.99;65.48;99930.39;2059118;86;20953;-82
2021/09/30 10:25:33;;;;;;;8.88;5.78;;;;;;;15.26;64.02;99938.58;2059383;85;20973;-82
2021/09/30 10:28:33;;;;;;;8.65;4.87;;;;;;;15.24;62.42;99940.31;2058939;85;21004;-80
2021/09/30 10:31:34;;;;;;;9.05;6.40;;;;;;;15.06;62.66;99934.85;2059325;85;20973;-80
2021/09/30 10:34:34;;;;;;;15.93;5.58;;;;;;;15.02;63.81;99940.06;2098196;85;20917;-81
2021/09/30 10:37:36;;;;;;;6.55;4.20;;;;;;;15.23;63.78;99940.30;2058409;86;21671;-81
2021/09/30 10:40:36;;;;;;;7.20;5.10;;;;;;;15.49;63.18;99941.44;2058348;86;20985;-81
2021/09/30 10:43:41;;;;;;;7.30;4.72;;;;;;;15.67;62.35;99939.47;2058285;86;20988;-81
2021/09/30 10:46:41;;;;;;;7.58;5.25;;;;;;;15.73;62.77;99943.47;2059151;86;21045;-81
2021/09/30 10:49:42;;;;;;;4.90;4.40;;;;;;;15.80;61.08;99948.35;2098738;85;21278;-81
2021/09/30 10:52:43;;;;;;;9.48;4.78;;;;;;;15.58;60.71;99936.72;2059529;86;21053;-81
2021/09/30 10:55:43;;;;;;;5.90;4.08;;;;;;;15.55;60.62;99936.22;2059647;85;20984;-81
2021/09/30 10:58:44;;;;;;;4.45;3.05;;;;;;;15.47;59.77;99942.28;2060702;85;20944;-80
2021/09/30 11:01:44;;;;;;;6.53;4.12;;;;;;;15.48;61.36;99940.10;2059886;85;20929;-81
2021/09/30 11:04:45;;;;;;;4.67;3.37;;;;;;;15.68;61.04;99937.28;2059815;86;20956;-83
2021/09/30 11:07:45;;;;;;;5.05;3.58;;;;;;;15.74;58.25;99943.03;2060430;85;20981;-80
2021/09/30 11:10:46;;;;;;;7.25;3.30;;;;;;;15.78;59.34;99940.44;2060475;86;20956;-83
2021/09/30 11:13:46;;;;;;;5.40;3.75;;;;;;;15.87;58.60;99939.20;2060606;86;20985;-82
2021/09/30 11:16:47;;;;;;;5.80;3.40;;;;;;;15.88;58.87;99935.70;2060817;86;21345;-81
2021/09/30 11:19:48;;;;;;;6.25;3.50;;;;;;;15.80;57.91;99932.13;2059880;85;21328;-82
2021/09/30 11:22:48;;;;;;;4.55;3.65;;;;;;;15.82;58.70;99936.96;2060269;86;20941;-80
2021/09/30 11:25:49;;;;;;;5.95;3.30;;;;;;;15.96;59.00;99934.88;2056457;86;20953;-82
2021/09/30 11:28:49;;;;;;;6.20;3.75;;;;;;;15.97;57.85;99941.47;2058867;86;21021;-78
2021/09/30 11:31:50;;;;;;;11.38;4.25;;;;;;;16.03;57.93;99939.31;2058696;86;21384;-82
2021/09/30 11:34:50;;;;;;;4.78;3.33;;;;;;;16.03;58.07;99937.99;2056001;86;20953;-82
2021/09/30 11:37:51;;;;;;;5.72;4.28;;;;;;;15.88;58.32;99954.56;2059373;86;20952;-82
2021/09/30 11:40:51;;;;;;;7.58;4.00;;;;;;;15.88;58.32;99954.56;2055695;86;20985;-81
2021/09/30 11:43:52;;;;;;;6.30;4.37;;;;;;;15.89;58.62;99942.72;2056037;86;20989;-82
2021/09/30 11:46:53;;;;;;;5.67;4.37;;;;;;;15.91;58.72;99940.98;2059015;86;21009;-81
2021/09/30 11:49:53;;;;;;;5.35;3.90;;;;;;;16.05;57.87;99947.67;2056204;86;20977;-80
2021/09/30 11:52:54;;;;;;;7.67;3.45;;;;;;;16.05;57.87;99947.67;2056097;86;20997;-82
2021/09/30 11:55:54;;;;;;;4.17;2.95;;;;;;;16.07;57.28;99945.05;2082330;85;21479;-83
2021/09/30 11:58:54;;;;;;;6.47;3.60;;;;;;;16.11;57.78;99952.98;2057609;86;21348;-82
2021/09/30 12:01:58;;;;;;;4.83;4.17;;;;;;;16.08;58.36;99953.39;2057165;86;20996;-84
2021/09/30 12:04:59;;;;;;;5.75;4.30;;;;;;;16.15;57.67;99961.78;2098610;84;21140;-82
2021/09/30 12:08:00;;;;;;;12.73;4.15;;;;;;;16.11;58.72;99960.00;2097100;85;20984;-80
2021/09/30 12:11:00;;;;;;;4.28;3.77;;;;;;;16.18;58.44;99965.76;2056263;86;21319;-81
2021/09/30 12:14:01;;;;;;;35.25;23.38;;;;;;;16.14;58.35;99962.66;2056169;86;21311;-81
2021/09/30 12:17:01;;;;;;;12.33;9.30;;;;;;;16.07;58.51;99968.75;2097116;84;20976;-81
2021/09/30 12:20:01;;;;;;;24.80;19.20;;;;;;;15.97;58.47;99973.06;2097132;84;20977;-80
2021/09/30 12:23:05;;;;;;;21.93;16.93;;;;;;;15.80;58.75;99971.61;2097102;85;20929;-82
2021/09/30 12:26:06;;;;;;;9.93;7.45;;;;;;;15.67;58.92;99982.02;2097461;85;20925;-81
2021/09/30 12:29:06;;;;;;;8.33;5.22;;;;;;;15.48;58.57;99977.82;2097229;85;21000;-82
2021/09/30 12:32:07;;;;;;;22.05;17.80;;;;;;;15.34;59.43;99978.11;2097845;85;20965;-83
2021/09/30 12:35:07;;;;;;;27.17;19.12;;;;;;;15.17;59.80;99979.25;2098025;85;21122;-82
2021/09/30 12:38:08;;;;;;;34.13;22.27;;;;;;;15.17;59.80;99979.25;2098182;85;20956;-82
2021/09/30 12:41:09;;;;;;;40.05;29.30;;;;;;;15.17;60.79;99973.10;2098493;85;20964;-82
2021/09/30 12:44:09;;;;;;;12.37;10.18;;;;;;;15.19;60.86;99977.52;2098812;85;20956;-82
2021/09/30 12:47:10;;;;;;;9.93;7.28;;;;;;;15.14;60.72;99981.84;2098624;85;21065;-82
2021/09/30 12:50:10;;;;;;;22.77;13.22;;;;;;;15.11;60.63;99971.72;2098569;85;20945;-81
2021/09/30 12:53:11;;;;;;;9.43;8.48;;;;;;;15.11;60.63;99971.72;2098723;85;20961;-83
2021/09/30 12:56:12;;;;;;;13.70;6.62;;;;;;;15.06;60.84;99982.19;2101170;84;20984;-81
2021/09/30 12:59:13;;;;;;;37.00;23.18;;;;;;;14.97;60.17;99971.13;2057589;86;21287;-82
2021/09/30 13:02:14;;;;;;;52.98;32.03;;;;;;;14.96;60.83;99975.05;2102512;84;20949;-82
2021/09/30 13:05:14;;;;;;;8.68;6.03;;;;;;;15.01;61.07;99968.53;2102271;84;20980;-81
2021/09/30 13:08:15;;;;;;;9.43;5.42;;;;;;;14.98;60.52;99969.38;2056818;86;21698;-83
2021/09/30 13:11:15;;;;;;;6.03;4.17;;;;;;;14.95;60.28;99966.71;2056946;86;20964;-82
2021/09/30 13:14:16;;;;;;;8.10;4.03;;;;;;;14.92;60.43;99961.42;2102035;84;20965;-83
2021/09/30 13:17:16;;;;;;;8.08;4.70;;;;;;;14.96;60.64;99961.91;2102832;85;21129;-82
2021/09/30 13:20:20;;;;;;;9.58;4.80;;;;;;;15.05;61.06;99955.87;2056502;86;20989;-80
2021/09/30 13:23:19;;;;;;;7.47;4.30;;;;;;;15.13;60.62;99952.47;2056702;86;20963;-83
2021/09/30 13:26:20;;;;;;;8.68;5.00;;;;;;;15.11;60.24;99955.51;2102132;84;20952;-82
2021/09/30 13:29:20;;;;;;;6.28;3.77;;;;;;;15.09;60.31;99957.23;2102423;85;21135;-83
2021/09/30 13:32:23;;;;;;;4.85;3.80;;;;;;;15.01;60.11;99956.27;2102070;85;20921;-82
2021/09/30 13:35:24;;;;;;;4.28;3.37;;;;;;;14.98;60.06;99956.23;2057175;86;21387;-82
2021/09/30 13:38:25;;;;;;;4.47;3.05;;;;;;;14.92;60.21;99943.02;2103561;84;21379;-82
2021/09/30 13:41:25;;;;;;;6.25;3.70;;;;;;;14.87;60.49;99949.53;2103719;83;20981;-82
2021/09/30 13:44:26;;;;;;;7.47;3.52;;;;;;;14.81;59.94;99953.83;2057797;86;20956;-83
2021/09/30 13:47:28;;;;;;;8.13;3.40;;;;;;;14.81;60.28;99957.34;2103332;85;21392;-82
2021/09/30 13:50:29;;;;;;;4.58;3.27;;;;;;;14.80;59.43;99957.33;2102963;84;21001;-81
2021/09/30 13:53:29;;;;;;;9.85;3.52;;;;;;;14.75;60.10;99959.90;2057367;86;20955;-81
2021/09/30 13:56:31;;;;;;;6.75;3.42;;;;;;;14.71;59.68;99946.66;2077383;83;20976;-82
2021/09/30 13:59:31;;;;;;;5.80;3.87;;;;;;;14.69;60.27;99950.59;2060477;86;20997;-82
2021/09/30 14:02:35;;;;;;;7.28;4.22;;;;;;;14.70;59.93;99953.66;2057345;86;21003;-81
2021/09/30 14:05:35;;;;;;;7.00;4.95;;;;;;;14.65;60.16;99952.72;2057383;86;21001;-82
2021/09/30 14:08:40;;;;;;;7.42;4.90;;;;;;;14.63;60.72;99955.33;2057010;86;21400;-82
2021/09/30 14:11:38;;;;;;;7.83;3.92;;;;;;;14.68;61.40;99958.02;2056893;86;20972;-81
2021/09/30 14:14:39;;;;;;;6.37;3.08;;;;;;;14.73;61.15;99953.70;2057027;86;20981;-81
2021/09/30 14:17:42;;;;;;;8.43;4.08;;;;;;;14.78;61.08;99955.99;2059679;86;20972;-82
2021/09/30 14:20:41;;;;;;;6.97;4.45;;;;;;;14.81;60.77;99951.20;2059457;86;20989;-81
2021/09/30 14:23:42;;;;;;;4.75;3.72;;;;;;;14.87;60.71;99952.59;2059671;85;20965;-81
2021/09/30 14:26:43;;;;;;;5.55;4.03;;;;;;;14.92;60.14;99947.84;2056751;86;20977;-82
2021/09/30 14:29:43;;;;;;;7.20;4.22;;;;;;;14.93;60.28;99940.84;2056936;86;21109;-82
2021/09/30 14:32:44;;;;;;;7.08;5.55;;;;;;;14.96;60.34;99946.13;2057031;86;20973;-81
2021/09/30 14:35:45;;;;;;;9.05;6.42;;;;;;;14.94;60.00;99946.55;2057683;86;20984;-82
2021/09/30 14:38:45;;;;;;;6.85;5.62;;;;;;;14.85;60.46;99946.44;2061223;86;20961;-82
2021/09/30 14:41:48;;;;;;;10.65;5.95;;;;;;;14.80;60.57;99948.13;2061124;86;21118;-81
2021/09/30 14:44:49;;;;;;;15.95;6.92;;;;;;;14.76;60.84;99949.84;2061199;86;21045;-82
2021/09/30 14:47:49;;;;;;;8.35;6.83;;;;;;;14.70;60.43;99941.84;2061122;85;20969;-82
2021/09/30 14:50:52;;;;;;;8.93;5.92;;;;;;;14.70;60.52;99940.95;2057817;86;21345;-82
2021/09/30 14:53:52;;;;;;;10.72;5.78;;;;;;;14.72;61.41;99943.17;2058323;86;21024;-82
2021/09/30 14:56:53;;;;;;;11.50;7.53;;;;;;;14.67;61.02;99939.17;2061205;84;21008;-82
2021/09/30 14:59:53;;;;;;;14.13;7.33;;;;;;;14.62;60.99;99943.48;2061554;86;21684;-83
2021/09/30 15:02:54;;;;;;;13.25;6.90;;;;;;;14.53;60.61;99937.68;2060375;85;20985;-82
2021/09/30 15:05:54;;;;;;;9.88;6.50;;;;;;;14.51;62.56;99945.09;2060789;86;20998;-82
2021/09/30 15:08:55;;;;;;;7.92;6.05;;;;;;;14.42;63.43;99951.50;2061035;85;21401;-81
2021/09/30 15:11:55;;;;;;;7.35;5.08;;;;;;;14.28;64.16;99954.81;2061046;86;21312;-81
2021/09/30 15:14:56;;;;;;;8.75;4.90;;;;;;;14.16;65.13;99954.63;2060749;86;20957;-82
2021/09/30 15:18:00;;;;;;;10.38;5.50;;;;;;;14.06;65.67;99954.47;2061289;86;20977;-83
2021/09/30 15:24:21;;;;;;;7.87;4.65;;;;;;;13.85;66.94;99958.92;2061409;86;20937;-82
2021/09/30 15:27:22;;;;;;;6.10;4.97;;;;;;;13.71;67.28;99956.95;2061426;86;20944;-83
2021/09/30 15:30:23;;;;;;;8.20;4.97;;;;;;;13.61;68.06;99956.77;2061335;85;21017;-81
2021/09/30 15:33:23;;;;;;;5.83;5.05;;;;;;;13.52;68.74;99960.11;2061532;85;20917;-81
2021/09/30 15:36:24;;;;;;;34.58;22.05;;;;;;;13.47;69.09;99957.84;2060761;85;21423;-83
2021/09/30 15:39:24;;;;;;;16.93;11.40;;;;;;;13.46;69.25;99966.56;2061268;85;20938;-84
2021/09/30 15:42:25;;;;;;;10.05;5.60;;;;;;;13.48;69.31;99962.66;2061906;86;20953;-83
2021/09/30 15:45:26;;;;;;;26.35;6.03;;;;;;;13.54;69.45;99966.27;2062634;86;21001;-83
2021/09/30 15:48:27;;;;;;;18.32;5.80;;;;;;;13.57;69.62;99972.00;2062109;86;20980;-83
2021/09/30 15:51:27;;;;;;;28.23;9.10;;;;;;;13.60;69.66;99974.25;2061582;86;20961;-84
2021/09/30 15:54:28;;;;;;;16.35;9.28;;;;;;;13.63;69.33;99976.04;2060785;85;21329;-82
2021/09/30 15:57:29;;;;;;;21.27;9.80;;;;;;;13.68;69.37;99977.89;2089358;84;20993;-82
2021/09/30 16:00:29;;;;;;;18.52;7.50;;;;;;;13.70;69.62;99968.73;2099624;85;21344;-83
2021/09/30 16:03:30;;;;;;;30.27;11.03;;;;;;;13.69;69.96;99973.52;2098609;85;20933;-84
2021/09/30 16:06:31;;;;;;;12.00;8.48;;;;;;;14.43;71.71;99973.88;2099591;85;21016;-82
2021/09/30 16:09:31;;;;;;;18.42;7.83;;;;;;;14.61;69.13;99979.39;2059017;87;21098;-82
2021/09/30 16:12:32;;;;;;;16.60;7.50;;;;;;;14.31;68.96;99974.55;2058218;86;20964;-83
2021/09/30 16:15:32;;;;;;;18.07;8.50;;;;;;;14.05;69.27;99985.09;2058379;86;20980;-81
2021/09/30 16:18:36;;;;;;;16.82;8.15;;;;;;;13.79;69.66;99982.01;2058258;86;20948;-81
2021/09/30 16:21:35;;;;;;;18.85;8.75;;;;;;;13.62;70.24;99990.02;2057703;86;20967;-83
2021/09/30 16:24:36;;;;;;;21.00;11.83;;;;;;;13.43;70.58;99990.53;2058235;86;21347;-80
2021/09/30 16:27:36;;;;;;;29.77;12.53;;;;;;;13.28;70.93;99994.64;2099630;84;20949;-82
2021/09/30 16:30:37;;;;;;;26.60;12.18;;;;;;;13.15;71.11;99999.58;2098977;85;21011;-81
2021/09/30 16:33:38;;;;;;;24.55;12.53;;;;;;;13.02;71.49;99995.41;2099238;85;21320;-81
2021/09/30 16:36:40;;;;;;;95.55;59.58;;;;;;;12.87;71.82;100005.54;2099810;85;21012;-81
2021/09/30 16:39:43;;;;;;;31.90;19.73;;;;;;;12.75;72.13;100003.55;2100280;85;20945;-82